createdAt,value
2023-05-21T00:00:08.019Z,1003.75
2023-05-21T00:00:29.306Z,1003.77
2023-05-21T00:00:50.394Z,1003.73
2023-05-21T00:01:11.465Z,1003.75
2023-05-21T00:01:32.519Z,1003.75
2023-05-21T00:01:53.578Z,1003.73
2023-05-21T00:02:14.626Z,1003.73
2023-05-21T00:02:35.770Z,1003.73
2023-05-21T00:02:56.898Z,1003.73
2023-05-21T00:03:18.035Z,1003.73
2023-05-21T00:03:39.209Z,1003.71
2023-05-21T00:04:00.484Z,1003.69
2023-05-21T00:04:21.626Z,1003.69
2023-05-21T00:04:42.689Z,1003.71
2023-05-21T00:05:03.756Z,1003.71
2023-05-21T00:05:24.827Z,1003.71
2023-05-21T00:05:46.017Z,1003.71
2023-05-21T00:06:07.282Z,1003.71
2023-05-21T00:06:28.494Z,1003.71
2023-05-21T00:06:49.652Z,1003.69
2023-05-21T00:07:10.702Z,1003.69
2023-05-21T00:07:31.785Z,1003.67
2023-05-21T00:07:52.837Z,1003.71
2023-05-21T00:08:13.958Z,1003.69
2023-05-21T00:08:35.033Z,1003.71
2023-05-21T00:08:56.086Z,1003.69
2023-05-21T00:09:17.150Z,1003.67
2023-05-21T00:09:38.249Z,1003.67
2023-05-21T00:09:59.305Z,1003.69
2023-05-21T00:10:20.346Z,1003.67
2023-05-21T00:10:41.416Z,1003.69
2023-05-21T00:11:02.676Z,1003.67
2023-05-21T00:11:23.773Z,1003.67
2023-05-21T00:11:44.842Z,1003.69
2023-05-21T00:12:05.889Z,1003.69
2023-05-21T00:12:26.966Z,1003.69
2023-05-21T00:12:48.017Z,1003.65
2023-05-21T00:13:09.157Z,1003.69
2023-05-21T00:13:30.198Z,1003.67
2023-05-21T00:13:51.271Z,1003.67
2023-05-21T00:14:12.327Z,1003.67
2023-05-21T00:14:33.413Z,1003.67
2023-05-21T00:14:54.461Z,1003.65
2023-05-21T00:15:15.510Z,1003.67
2023-05-21T00:15:36.809Z,1003.67
2023-05-21T00:15:58.109Z,1003.71
2023-05-21T00:16:19.186Z,1003.71
2023-05-21T00:16:40.565Z,1003.69
2023-05-21T00:17:01.572Z,1003.69
2023-05-21T00:17:22.633Z,1003.71
2023-05-21T00:17:43.748Z,1003.67
2023-05-21T00:18:04.829Z,1003.71
2023-05-21T00:18:25.940Z,1003.71
2023-05-21T00:18:47.019Z,1003.71
2023-05-21T00:19:08.093Z,1003.73
2023-05-21T00:19:29.221Z,1003.71
2023-05-21T00:19:50.273Z,1003.71
2023-05-21T00:20:11.326Z,1003.71
2023-05-21T00:20:32.579Z,1003.67
2023-05-21T00:20:53.671Z,1003.71
2023-05-21T00:21:14.736Z,1003.69
2023-05-21T00:21:35.836Z,1003.71
2023-05-21T00:21:57.117Z,1003.73
2023-05-21T00:22:18.173Z,1003.73
2023-05-21T00:22:39.229Z,1003.69
2023-05-21T00:23:00.288Z,1003.69
2023-05-21T00:23:21.367Z,1003.71
2023-05-21T00:23:42.439Z,1003.69
2023-05-21T00:24:03.510Z,1003.69
2023-05-21T00:24:24.568Z,1003.69
2023-05-21T00:24:45.629Z,1003.65
2023-05-21T00:25:06.682Z,1003.67
2023-05-21T00:25:27.749Z,1003.67
2023-05-21T00:25:48.802Z,1003.67
2023-05-21T00:26:09.875Z,1003.67
2023-05-21T00:26:30.938Z,1003.63
2023-05-21T00:26:52.207Z,1003.63
2023-05-21T00:27:13.482Z,1003.65
2023-05-21T00:27:34.552Z,1003.65
2023-05-21T00:27:55.608Z,1003.63
2023-05-21T00:28:16.666Z,1003.63
2023-05-21T00:28:38.201Z,1003.63
2023-05-21T00:28:59.253Z,1003.63
2023-05-21T00:29:20.307Z,1003.61
2023-05-21T00:29:43.547Z,1003.63
2023-05-21T00:30:05.236Z,1003.65
2023-05-21T00:30:26.265Z,1003.61
2023-05-21T00:30:47.320Z,1003.63
2023-05-21T00:31:08.430Z,1003.61
2023-05-21T00:31:29.515Z,1003.63
2023-05-21T00:31:50.598Z,1003.63
2023-05-21T00:32:11.716Z,1003.63
2023-05-21T00:32:33.235Z,1003.65
2023-05-21T00:32:54.406Z,1003.63
2023-05-21T00:33:15.444Z,1003.57
2023-05-21T00:33:36.525Z,1003.57
2023-05-21T00:33:57.695Z,1003.55
2023-05-21T00:34:18.766Z,1003.57
2023-05-21T00:34:39.811Z,1003.57
2023-05-21T00:35:00.867Z,1003.57
2023-05-21T00:35:21.938Z,1003.55
2023-05-21T00:35:42.996Z,1003.55
2023-05-21T00:36:04.049Z,1003.55
2023-05-21T00:36:25.108Z,1003.51
2023-05-21T00:36:46.168Z,1003.53
2023-05-21T00:37:07.219Z,1003.49
2023-05-21T00:37:28.523Z,1003.49
2023-05-21T00:37:49.626Z,1003.51
2023-05-21T00:38:10.685Z,1003.47
2023-05-21T00:38:31.743Z,1003.51
2023-05-21T00:38:52.810Z,1003.51
2023-05-21T00:39:13.853Z,1003.47
2023-05-21T00:39:34.939Z,1003.49
2023-05-21T00:39:57.566Z,1003.49
2023-05-21T00:40:19.359Z,1003.45
2023-05-21T00:40:40.411Z,1003.45
2023-05-21T00:41:01.476Z,1003.45
2023-05-21T00:41:22.544Z,1003.45
2023-05-21T00:41:43.607Z,1003.45
2023-05-21T00:42:04.678Z,1003.45
2023-05-21T00:42:25.721Z,1003.43
2023-05-21T00:42:46.825Z,1003.39
2023-05-21T00:43:07.881Z,1003.41
2023-05-21T00:43:28.944Z,1003.41
2023-05-21T00:43:50.002Z,1003.41
2023-05-21T00:44:11.072Z,1003.41
2023-05-21T00:44:32.135Z,1003.39
2023-05-21T00:44:53.202Z,1003.39
2023-05-21T00:45:14.237Z,1003.39
2023-05-21T00:45:35.500Z,1003.37
2023-05-21T00:45:56.757Z,1003.37
2023-05-21T00:46:17.872Z,1003.37
2023-05-21T00:46:38.950Z,1003.35
2023-05-21T00:47:00.025Z,1003.35
2023-05-21T00:47:21.162Z,1003.35
2023-05-21T00:47:42.342Z,1003.35
2023-05-21T00:48:03.605Z,1003.37
2023-05-21T00:48:24.868Z,1003.35
2023-05-21T00:48:45.934Z,1003.39
2023-05-21T00:49:06.985Z,1003.35
2023-05-21T00:49:28.043Z,1003.37
2023-05-21T00:49:49.122Z,1003.37
2023-05-21T00:50:10.188Z,1003.35
2023-05-21T00:50:31.223Z,1003.35
2023-05-21T00:50:52.285Z,1003.35
2023-05-21T00:51:13.358Z,1003.32
2023-05-21T00:51:34.417Z,1003.35
2023-05-21T00:51:55.476Z,1003.34
2023-05-21T00:52:16.542Z,1003.35
2023-05-21T00:52:37.591Z,1003.34
2023-05-21T00:52:58.666Z,1003.32
2023-05-21T00:53:19.763Z,1003.37
2023-05-21T00:53:40.860Z,1003.34
2023-05-21T00:54:01.934Z,1003.32
2023-05-21T00:54:22.983Z,1003.34
2023-05-21T00:54:44.048Z,1003.37
2023-05-21T00:55:05.106Z,1003.34
2023-05-21T00:55:26.172Z,1003.35
2023-05-21T00:55:47.241Z,1003.32
2023-05-21T00:56:08.300Z,1003.34
2023-05-21T00:56:29.375Z,1003.34
2023-05-21T00:56:50.491Z,1003.34
2023-05-21T00:57:11.551Z,1003.30
2023-05-21T00:57:32.622Z,1003.32
2023-05-21T00:57:53.683Z,1003.34
2023-05-21T00:58:14.762Z,1003.32
2023-05-21T00:58:35.869Z,1003.30
2023-05-21T00:58:56.935Z,1003.32
2023-05-21T00:59:17.993Z,1003.32
2023-05-21T00:59:39.070Z,1003.34
2023-05-21T01:00:00.246Z,1003.32
2023-05-21T01:00:21.312Z,1003.32
2023-05-21T01:00:42.376Z,1003.32
2023-05-21T01:01:03.568Z,1003.34
2023-05-21T01:01:24.732Z,1003.34
2023-05-21T01:01:45.976Z,1003.30
2023-05-21T01:02:07.132Z,1003.30
2023-05-21T01:02:28.239Z,1003.32
2023-05-21T01:02:49.454Z,1003.32
2023-05-21T01:03:10.657Z,1003.30
2023-05-21T01:03:31.915Z,1003.28
2023-05-21T01:03:53.158Z,1003.28
2023-05-21T01:04:14.257Z,1003.28
2023-05-21T01:04:35.329Z,1003.28
2023-05-21T01:04:56.390Z,1003.30
2023-05-21T01:05:17.450Z,1003.30
2023-05-21T01:05:38.515Z,1003.30
2023-05-21T01:05:59.582Z,1003.28
2023-05-21T01:06:20.645Z,1003.30
2023-05-21T01:06:41.709Z,1003.30
2023-05-21T01:07:02.820Z,1003.30
2023-05-21T01:07:23.892Z,1003.30
2023-05-21T01:07:44.943Z,1003.28
2023-05-21T01:08:06.024Z,1003.26
2023-05-21T01:08:27.072Z,1003.28
2023-05-21T01:08:48.136Z,1003.26
2023-05-21T01:09:09.301Z,1003.22
2023-05-21T01:09:30.409Z,1003.28
2023-05-21T01:09:51.455Z,1003.22
2023-05-21T01:10:12.524Z,1003.24
2023-05-21T01:10:33.585Z,1003.20
2023-05-21T01:10:54.655Z,1003.24
2023-05-21T01:11:15.736Z,1003.20
2023-05-21T01:11:36.793Z,1003.22
2023-05-21T01:11:57.848Z,1003.20
2023-05-21T01:12:18.929Z,1003.20
2023-05-21T01:12:39.981Z,1003.22
2023-05-21T01:13:01.044Z,1003.20
2023-05-21T01:13:22.101Z,1003.22
2023-05-21T01:13:43.169Z,1003.20
2023-05-21T01:14:04.222Z,1003.20
2023-05-21T01:14:25.325Z,1003.22
2023-05-21T01:14:46.425Z,1003.18
2023-05-21T01:15:07.501Z,1003.18
2023-05-21T01:15:28.546Z,1003.18
2023-05-21T01:15:49.613Z,1003.18
2023-05-21T01:16:10.685Z,1003.14
2023-05-21T01:16:31.757Z,1003.18
2023-05-21T01:16:52.840Z,1003.16
2023-05-21T01:17:14.065Z,1003.14
2023-05-21T01:17:35.143Z,1003.16
2023-05-21T01:17:56.237Z,1003.14
2023-05-21T01:18:17.325Z,1003.16
2023-05-21T01:18:38.613Z,1003.14
2023-05-21T01:18:59.897Z,1003.16
2023-05-21T01:19:21.079Z,1003.16
2023-05-21T01:19:42.502Z,1003.18
2023-05-21T01:20:03.592Z,1003.16
2023-05-21T01:20:24.677Z,1003.16
2023-05-21T01:20:45.724Z,1003.14
2023-05-21T01:21:06.797Z,1003.14
2023-05-21T01:21:27.859Z,1003.12
2023-05-21T01:21:48.920Z,1003.12
2023-05-21T01:22:09.992Z,1003.10
2023-05-21T01:22:31.054Z,1003.08
2023-05-21T01:22:52.115Z,1003.10
2023-05-21T01:23:13.187Z,1003.10
2023-05-21T01:23:34.235Z,1003.08
2023-05-21T01:23:55.285Z,1003.10
2023-05-21T01:24:16.351Z,1003.12
2023-05-21T01:24:37.412Z,1003.08
2023-05-21T01:24:58.683Z,1003.08
2023-05-21T01:25:19.789Z,1003.06
2023-05-21T01:25:40.830Z,1003.08
2023-05-21T01:26:01.894Z,1003.08
2023-05-21T01:26:22.982Z,1003.08
2023-05-21T01:26:44.081Z,1003.10
2023-05-21T01:27:05.124Z,1003.04
2023-05-21T01:27:26.190Z,1003.06
2023-05-21T01:27:47.242Z,1003.08
2023-05-21T01:28:08.314Z,1003.08
2023-05-21T01:28:29.379Z,1003.08
2023-05-21T01:28:50.435Z,1003.06
2023-05-21T01:29:11.486Z,1003.06
2023-05-21T01:29:32.546Z,1003.08
2023-05-21T01:29:53.632Z,1003.06
2023-05-21T01:30:14.908Z,1003.04
2023-05-21T01:30:36.149Z,1003.02
2023-05-21T01:30:57.213Z,1003.00
2023-05-21T01:31:18.280Z,1003.02
2023-05-21T01:31:39.327Z,1003.02
2023-05-21T01:32:00.396Z,1003.02
2023-05-21T01:32:21.455Z,1003.02
2023-05-21T01:32:42.684Z,1003.02
2023-05-21T01:33:03.928Z,1003.02
2023-05-21T01:33:25.200Z,1003.04
2023-05-21T01:33:46.322Z,1003.04
2023-05-21T01:34:07.487Z,1003.02
2023-05-21T01:34:28.601Z,1003.00
2023-05-21T01:34:49.654Z,1003.02
2023-05-21T01:35:10.728Z,1003.04
2023-05-21T01:35:31.819Z,1003.02
2023-05-21T01:35:52.943Z,1002.98
2023-05-21T01:36:14.004Z,1002.98
2023-05-21T01:36:35.069Z,1003.02
2023-05-21T01:36:56.123Z,1003.02
2023-05-21T01:37:17.176Z,1003.00
2023-05-21T01:37:38.491Z,1003.02
2023-05-21T01:37:59.541Z,1002.96
2023-05-21T01:38:20.622Z,1003.00
2023-05-21T01:38:41.665Z,1003.00
2023-05-21T01:39:02.721Z,1002.98
2023-05-21T01:39:23.783Z,1003.02
2023-05-21T01:39:44.866Z,1002.98
2023-05-21T01:40:05.918Z,1002.98
2023-05-21T01:40:27.005Z,1002.98
2023-05-21T01:40:48.092Z,1002.98
2023-05-21T01:41:09.192Z,1002.98
2023-05-21T01:41:30.245Z,1003.02
2023-05-21T01:41:51.320Z,1002.98
2023-05-21T01:42:12.379Z,1002.98
2023-05-21T01:42:33.437Z,1002.98
2023-05-21T01:42:54.503Z,1002.98
2023-05-21T01:43:15.548Z,1002.94
2023-05-21T01:43:36.610Z,1003.00
2023-05-21T01:43:57.665Z,1002.96
2023-05-21T01:44:18.735Z,1002.94
2023-05-21T01:44:39.807Z,1003.00
2023-05-21T01:45:00.853Z,1002.98
2023-05-21T01:45:21.924Z,1002.96
2023-05-21T01:45:42.963Z,1002.96
2023-05-21T01:46:04.057Z,1002.92
2023-05-21T01:46:25.430Z,1002.94
2023-05-21T01:46:46.580Z,1002.96
2023-05-21T01:47:07.708Z,1002.94
2023-05-21T01:47:28.802Z,1002.96
2023-05-21T01:47:49.912Z,1002.94
2023-05-21T01:48:10.970Z,1002.94
2023-05-21T01:48:32.035Z,1002.96
2023-05-21T01:48:53.082Z,1002.96
2023-05-21T01:49:14.140Z,1002.94
2023-05-21T01:49:35.211Z,1002.96
2023-05-21T01:49:56.263Z,1002.96
2023-05-21T01:50:17.318Z,1002.96
2023-05-21T01:50:38.377Z,1002.94
2023-05-21T01:50:59.433Z,1002.92
2023-05-21T01:51:20.567Z,1002.94
2023-05-21T01:51:41.668Z,1002.94
2023-05-21T01:52:02.722Z,1002.96
2023-05-21T01:52:23.791Z,1002.96
2023-05-21T01:52:44.845Z,1002.98
2023-05-21T01:53:05.934Z,1002.98
2023-05-21T01:53:26.976Z,1002.98
2023-05-21T01:53:48.033Z,1003.00
2023-05-21T01:54:09.135Z,1003.00
2023-05-21T01:54:30.198Z,1002.98
2023-05-21T01:54:51.286Z,1002.98
2023-05-21T01:55:12.327Z,1002.98
2023-05-21T01:55:33.520Z,1003.02
2023-05-21T01:55:54.620Z,1003.00
2023-05-21T01:56:15.665Z,1003.02
2023-05-21T01:56:36.761Z,1003.00
2023-05-21T01:56:57.830Z,1003.00
2023-05-21T01:57:18.903Z,1003.00
2023-05-21T01:57:39.956Z,1002.96
2023-05-21T01:58:02.444Z,1003.00
2023-05-21T01:58:23.739Z,1002.98
2023-05-21T01:58:44.804Z,1002.96
2023-05-21T01:59:05.915Z,1002.98
2023-05-21T01:59:26.933Z,1002.98
2023-05-21T01:59:48.010Z,1002.98
2023-05-21T02:00:09.072Z,1002.98
2023-05-21T02:00:30.155Z,1002.96
2023-05-21T02:00:51.197Z,1002.98
2023-05-21T02:01:12.241Z,1002.98
2023-05-21T02:01:33.342Z,1002.96
2023-05-21T02:01:54.505Z,1002.98
2023-05-21T02:02:15.810Z,1002.96
2023-05-21T02:02:37.166Z,1002.96
2023-05-21T02:02:58.327Z,1002.96
2023-05-21T02:03:19.467Z,1002.96
2023-05-21T02:03:40.670Z,1002.96
2023-05-21T02:04:01.923Z,1002.98
2023-05-21T02:04:23.093Z,1002.96
2023-05-21T02:04:44.130Z,1002.96
2023-05-21T02:05:05.184Z,1002.96
2023-05-21T02:05:26.259Z,1002.96
2023-05-21T02:05:47.306Z,1002.98
2023-05-21T02:06:08.374Z,1002.98
2023-05-21T02:06:29.437Z,1002.98
2023-05-21T02:06:50.542Z,1002.98
2023-05-21T02:07:11.843Z,1002.98
2023-05-21T02:07:33.107Z,1002.98
2023-05-21T02:07:54.164Z,1002.96
2023-05-21T02:08:15.330Z,1002.98
2023-05-21T02:08:36.546Z,1002.96
2023-05-21T02:08:57.608Z,1002.98
2023-05-21T02:09:18.674Z,1002.98
2023-05-21T02:09:39.743Z,1002.96
2023-05-21T02:10:00.784Z,1002.98
2023-05-21T02:10:21.860Z,1002.92
2023-05-21T02:10:42.898Z,1002.96
2023-05-21T02:11:03.958Z,1002.94
2023-05-21T02:11:25.015Z,1002.94
2023-05-21T02:11:46.082Z,1002.94
2023-05-21T02:12:07.138Z,1002.92
2023-05-21T02:12:28.309Z,1002.92
2023-05-21T02:12:49.351Z,1002.90
2023-05-21T02:13:10.414Z,1002.92
2023-05-21T02:13:31.483Z,1002.90
2023-05-21T02:13:52.540Z,1002.92
2023-05-21T02:14:13.609Z,1002.88
2023-05-21T02:14:34.664Z,1002.88
2023-05-21T02:14:55.712Z,1002.90
2023-05-21T02:15:16.802Z,1002.90
2023-05-21T02:15:38.022Z,1002.88
2023-05-21T02:15:59.227Z,1002.90
2023-05-21T02:16:20.296Z,1002.92
2023-05-21T02:16:41.356Z,1002.90
2023-05-21T02:17:02.459Z,1002.90
2023-05-21T02:17:23.500Z,1002.90
2023-05-21T02:17:44.803Z,1002.90
2023-05-21T02:18:05.968Z,1002.88
2023-05-21T02:18:27.010Z,1002.87
2023-05-21T02:18:48.162Z,1002.88
2023-05-21T02:19:09.276Z,1002.88
2023-05-21T02:19:30.622Z,1002.90
2023-05-21T02:19:51.721Z,1002.87
2023-05-21T02:20:12.775Z,1002.87
2023-05-21T02:20:33.859Z,1002.88
2023-05-21T02:20:54.932Z,1002.87
2023-05-21T02:21:15.993Z,1002.87
2023-05-21T02:21:37.050Z,1002.87
2023-05-21T02:21:58.130Z,1002.90
2023-05-21T02:22:19.173Z,1002.87
2023-05-21T02:22:40.245Z,1002.88
2023-05-21T02:23:01.510Z,1002.87
2023-05-21T02:23:22.798Z,1002.90
2023-05-21T02:23:43.871Z,1002.92
2023-05-21T02:24:04.935Z,1002.90
2023-05-21T02:24:25.981Z,1002.90
2023-05-21T02:24:47.037Z,1002.90
2023-05-21T02:25:08.123Z,1002.88
2023-05-21T02:25:29.156Z,1002.92
2023-05-21T02:25:50.225Z,1002.90
2023-05-21T02:26:11.304Z,1002.87
2023-05-21T02:26:32.369Z,1002.88
2023-05-21T02:26:53.444Z,1002.88
2023-05-21T02:27:14.491Z,1002.88
2023-05-21T02:27:35.554Z,1002.88
2023-05-21T02:27:56.626Z,1002.88
2023-05-21T02:28:17.877Z,1002.88
2023-05-21T02:28:39.160Z,1002.88
2023-05-21T02:29:00.213Z,1002.92
2023-05-21T02:29:21.272Z,1002.88
2023-05-21T02:29:42.359Z,1002.90
2023-05-21T02:30:03.381Z,1002.87
2023-05-21T02:30:24.451Z,1002.88
2023-05-21T02:30:45.536Z,1002.88
2023-05-21T02:31:07.038Z,1002.87
2023-05-21T02:31:28.103Z,1002.87
2023-05-21T02:31:49.154Z,1002.88
2023-05-21T02:32:10.327Z,1002.90
2023-05-21T02:32:31.412Z,1002.88
2023-05-21T02:32:52.532Z,1002.87
2023-05-21T02:33:13.624Z,1002.88
2023-05-21T02:33:34.781Z,1002.88
2023-05-21T02:33:55.907Z,1002.87
2023-05-21T02:34:17.039Z,1002.87
2023-05-21T02:34:38.077Z,1002.87
2023-05-21T02:34:59.134Z,1002.87
2023-05-21T02:35:20.188Z,1002.88
2023-05-21T02:35:41.256Z,1002.87
2023-05-21T02:36:02.317Z,1002.83
2023-05-21T02:36:23.382Z,1002.83
2023-05-21T02:36:44.444Z,1002.85
2023-05-21T02:37:05.503Z,1002.85
2023-05-21T02:37:26.560Z,1002.83
2023-05-21T02:37:47.627Z,1002.85
2023-05-21T02:38:08.680Z,1002.85
2023-05-21T02:38:29.738Z,1002.85
2023-05-21T02:38:50.825Z,1002.85
2023-05-21T02:39:12.109Z,1002.85
2023-05-21T02:39:33.160Z,1002.72
2023-05-21T02:39:54.226Z,1002.85
2023-05-21T02:40:15.299Z,1002.87
2023-05-21T02:40:36.377Z,1002.85
2023-05-21T02:40:57.428Z,1002.85
2023-05-21T02:41:18.492Z,1002.81
2023-05-21T02:41:39.551Z,1002.88
2023-05-21T02:42:00.606Z,1002.81
2023-05-21T02:42:21.670Z,1002.85
2023-05-21T02:42:42.715Z,1002.87
2023-05-21T02:43:03.777Z,1002.87
2023-05-21T02:43:24.839Z,1002.88
2023-05-21T02:43:45.898Z,1002.88
2023-05-21T02:44:07.198Z,1002.87
2023-05-21T02:44:28.309Z,1002.88
2023-05-21T02:44:49.370Z,1002.88
2023-05-21T02:45:10.413Z,1002.88
2023-05-21T02:45:31.489Z,1002.87
2023-05-21T02:45:52.578Z,1002.87
2023-05-21T02:46:13.781Z,1002.88
2023-05-21T02:46:34.823Z,1002.88
2023-05-21T02:46:55.910Z,1002.88
2023-05-21T02:47:16.976Z,1002.88
2023-05-21T02:47:38.096Z,1002.88
2023-05-21T02:47:59.206Z,1002.87
2023-05-21T02:48:20.235Z,1002.88
2023-05-21T02:48:41.310Z,1002.83
2023-05-21T02:49:02.368Z,1002.87
2023-05-21T02:49:23.459Z,1002.87
2023-05-21T02:49:44.730Z,1002.87
2023-05-21T02:50:05.792Z,1002.83
2023-05-21T02:50:26.849Z,1002.88
2023-05-21T02:50:47.911Z,1002.88
2023-05-21T02:51:08.978Z,1002.88
2023-05-21T02:51:30.058Z,1002.90
2023-05-21T02:51:51.096Z,1002.90
2023-05-21T02:52:12.153Z,1002.90
2023-05-21T02:52:33.224Z,1002.88
2023-05-21T02:52:54.282Z,1002.90
2023-05-21T02:53:15.359Z,1002.90
2023-05-21T02:53:36.418Z,1002.88
2023-05-21T02:53:57.499Z,1002.90
2023-05-21T02:54:18.560Z,1002.90
2023-05-21T02:54:39.658Z,1002.88
2023-05-21T02:55:00.936Z,1002.88
2023-05-21T02:55:22.006Z,1002.90
2023-05-21T02:55:43.076Z,1002.88
2023-05-21T02:56:04.141Z,1002.90
2023-05-21T02:56:25.199Z,1002.90
2023-05-21T02:56:46.257Z,1002.88
2023-05-21T02:57:07.317Z,1002.90
2023-05-21T02:57:28.379Z,1002.90
2023-05-21T02:57:49.428Z,1002.88
2023-05-21T02:58:10.490Z,1002.88
2023-05-21T02:58:31.564Z,1002.88
2023-05-21T02:58:52.636Z,1002.88
2023-05-21T02:59:13.679Z,1002.87
2023-05-21T02:59:34.739Z,1002.87
2023-05-21T02:59:55.838Z,1002.87
2023-05-21T03:00:17.123Z,1002.87
2023-05-21T03:00:38.170Z,1002.87
2023-05-21T03:00:59.321Z,1002.85
2023-05-21T03:01:20.474Z,1002.87
2023-05-21T03:01:41.600Z,1002.87
2023-05-21T03:02:02.703Z,1002.87
2023-05-21T03:02:23.934Z,1002.87
2023-05-21T03:02:45.115Z,1002.87
2023-05-21T03:03:06.295Z,1002.85
2023-05-21T03:03:27.499Z,1002.85
2023-05-21T03:03:48.760Z,1002.87
2023-05-21T03:04:09.826Z,1002.87
2023-05-21T03:04:30.870Z,1002.85
2023-05-21T03:04:51.934Z,1002.87
2023-05-21T03:05:13.050Z,1002.85
2023-05-21T03:05:34.476Z,1002.87
2023-05-21T03:05:55.634Z,1002.87
2023-05-21T03:06:16.690Z,1002.87
2023-05-21T03:06:37.745Z,1002.85
2023-05-21T03:06:58.796Z,1002.88
2023-05-21T03:07:20.107Z,1002.90
2023-05-21T03:07:41.257Z,1002.87
2023-05-21T03:08:02.319Z,1002.88
2023-05-21T03:08:23.388Z,1002.90
2023-05-21T03:08:44.468Z,1002.90
2023-05-21T03:09:05.545Z,1002.90
2023-05-21T03:09:26.608Z,1002.90
2023-05-21T03:09:47.675Z,1002.88
2023-05-21T03:10:08.742Z,1002.87
2023-05-21T03:10:30.034Z,1002.88
2023-05-21T03:10:51.108Z,1002.88
2023-05-21T03:11:12.171Z,1002.85
2023-05-21T03:11:33.236Z,1002.85
2023-05-21T03:11:54.308Z,1002.87
2023-05-21T03:12:15.354Z,1002.88
2023-05-21T03:12:36.404Z,1002.81
2023-05-21T03:12:57.497Z,1002.83
2023-05-21T03:13:18.594Z,1002.85
2023-05-21T03:13:39.703Z,1002.85
2023-05-21T03:14:00.767Z,1002.83
2023-05-21T03:14:21.834Z,1002.88
2023-05-21T03:14:42.901Z,1002.85
2023-05-21T03:15:03.951Z,1002.85
2023-05-21T03:15:25.368Z,1002.83
2023-05-21T03:15:46.465Z,1002.83
2023-05-21T03:16:07.752Z,1002.81
2023-05-21T03:16:28.833Z,1002.87
2023-05-21T03:16:49.899Z,1002.81
2023-05-21T03:17:10.936Z,1002.81
2023-05-21T03:17:32.039Z,1002.81
2023-05-21T03:17:53.128Z,1002.72
2023-05-21T03:18:14.225Z,1002.72
2023-05-21T03:18:35.305Z,1002.83
2023-05-21T03:18:56.393Z,1002.83
2023-05-21T03:19:17.505Z,1002.85
2023-05-21T03:19:38.552Z,1002.85
2023-05-21T03:19:59.610Z,1002.72
2023-05-21T03:20:20.669Z,1002.72
2023-05-21T03:20:41.740Z,1002.81
2023-05-21T03:21:03.013Z,1002.70
2023-05-21T03:21:24.291Z,1002.81
2023-05-21T03:21:45.345Z,1002.70
2023-05-21T03:22:06.408Z,1002.68
2023-05-21T03:22:27.466Z,1002.70
2023-05-21T03:22:48.527Z,1002.68
2023-05-21T03:23:09.593Z,1002.68
2023-05-21T03:23:30.647Z,1002.72
2023-05-21T03:23:51.718Z,1002.72
2023-05-21T03:24:12.764Z,1002.72
2023-05-21T03:24:33.821Z,1002.70
2023-05-21T03:24:54.881Z,1002.72
2023-05-21T03:25:15.951Z,1002.81
2023-05-21T03:25:37.275Z,1002.81
2023-05-21T03:25:58.470Z,1002.72
2023-05-21T03:26:19.736Z,1002.72
2023-05-21T03:26:41.010Z,1002.81
2023-05-21T03:27:02.180Z,1002.72
2023-05-21T03:27:23.220Z,1002.81
2023-05-21T03:27:44.293Z,1002.83
2023-05-21T03:28:05.346Z,1002.81
2023-05-21T03:28:26.396Z,1002.83
2023-05-21T03:28:47.455Z,1002.83
2023-05-21T03:29:08.514Z,1002.81
2023-05-21T03:29:29.566Z,1002.81
2023-05-21T03:29:50.631Z,1002.83
2023-05-21T03:30:11.689Z,1002.81
2023-05-21T03:30:32.740Z,1002.81
2023-05-21T03:30:53.806Z,1002.81
2023-05-21T03:31:14.891Z,1002.81
2023-05-21T03:31:35.964Z,1002.83
2023-05-21T03:31:57.125Z,1002.81
2023-05-21T03:32:18.294Z,1002.83
2023-05-21T03:32:39.413Z,1002.83
2023-05-21T03:33:00.501Z,1002.83
2023-05-21T03:33:21.623Z,1002.81
2023-05-21T03:33:42.695Z,1002.83
2023-05-21T03:34:03.747Z,1002.81
2023-05-21T03:34:24.804Z,1002.83
2023-05-21T03:34:45.875Z,1002.81
2023-05-21T03:35:06.956Z,1002.81
2023-05-21T03:35:28.005Z,1002.81
2023-05-21T03:35:49.063Z,1002.81
2023-05-21T03:36:10.108Z,1002.81
2023-05-21T03:36:31.170Z,1002.81
2023-05-21T03:36:52.275Z,1002.81
2023-05-21T03:37:13.363Z,1002.81
2023-05-21T03:37:34.422Z,1002.72
2023-05-21T03:37:55.482Z,1002.72
2023-05-21T03:38:16.593Z,1002.72
2023-05-21T03:38:37.621Z,1002.70
2023-05-21T03:38:58.689Z,1002.70
2023-05-21T03:39:19.737Z,1002.70
2023-05-21T03:39:40.812Z,1002.64
2023-05-21T03:40:01.863Z,1002.64
2023-05-21T03:40:22.916Z,1002.64
2023-05-21T03:40:43.980Z,1002.64
2023-05-21T03:41:05.059Z,1002.66
2023-05-21T03:41:26.149Z,1002.66
2023-05-21T03:41:47.193Z,1002.66
2023-05-21T03:42:08.469Z,1002.66
2023-05-21T03:42:29.558Z,1002.66
2023-05-21T03:42:50.614Z,1002.62
2023-05-21T03:43:11.676Z,1002.66
2023-05-21T03:43:32.743Z,1002.64
2023-05-21T03:43:53.803Z,1002.62
2023-05-21T03:44:14.859Z,1002.62
2023-05-21T03:44:35.913Z,1002.66
2023-05-21T03:44:56.973Z,1002.66
2023-05-21T03:45:18.035Z,1002.64
2023-05-21T03:45:41.004Z,1002.66
2023-05-21T03:46:03.908Z,1002.68
2023-05-21T03:46:25.033Z,1002.68
2023-05-21T03:46:46.103Z,1002.70
2023-05-21T03:47:07.129Z,1002.70
2023-05-21T03:47:28.276Z,1002.70
2023-05-21T03:47:49.416Z,1002.70
2023-05-21T03:48:10.471Z,1002.70
2023-05-21T03:48:31.524Z,1002.68
2023-05-21T03:48:52.591Z,1002.66
2023-05-21T03:49:13.647Z,1002.68
2023-05-21T03:49:34.695Z,1002.70
2023-05-21T03:49:55.819Z,1002.68
2023-05-21T03:50:16.874Z,1002.68
2023-05-21T03:50:37.936Z,1002.70
2023-05-21T03:50:58.994Z,1002.68
2023-05-21T03:51:20.058Z,1002.70
2023-05-21T03:51:41.105Z,1002.68
2023-05-21T03:52:02.167Z,1002.66
2023-05-21T03:52:23.221Z,1002.66
2023-05-21T03:52:44.320Z,1002.66
2023-05-21T03:53:05.416Z,1002.68
2023-05-21T03:53:26.475Z,1002.68
2023-05-21T03:53:47.535Z,1002.66
2023-05-21T03:54:08.607Z,1002.66
2023-05-21T03:54:29.654Z,1002.66
2023-05-21T03:54:50.704Z,1002.70
2023-05-21T03:55:11.765Z,1002.66
2023-05-21T03:55:32.837Z,1002.66
2023-05-21T03:55:53.883Z,1002.64
2023-05-21T03:56:14.960Z,1002.66
2023-05-21T03:56:36.023Z,1002.64
2023-05-21T03:56:57.097Z,1002.64
2023-05-21T03:57:18.165Z,1002.64
2023-05-21T03:57:39.222Z,1002.66
2023-05-21T03:58:00.475Z,1002.66
2023-05-21T03:58:21.742Z,1002.64
2023-05-21T03:58:42.808Z,1002.64
2023-05-21T03:59:03.889Z,1002.66
2023-05-21T03:59:24.930Z,1002.66
2023-05-21T03:59:46.025Z,1002.66
2023-05-21T04:00:07.048Z,1002.66
2023-05-21T04:00:28.104Z,1002.66
2023-05-21T04:00:49.167Z,1002.64
2023-05-21T04:01:10.234Z,1002.66
2023-05-21T04:01:31.402Z,1002.66
2023-05-21T04:01:52.440Z,1002.66
2023-05-21T04:02:13.551Z,1002.66
2023-05-21T04:02:34.665Z,1002.66
2023-05-21T04:02:55.845Z,1002.66
2023-05-21T04:03:17.298Z,1002.66
2023-05-21T04:03:59.668Z,1002.66
2023-05-21T04:04:20.795Z,1002.68
2023-05-21T04:04:41.869Z,1002.68
2023-05-21T04:05:02.899Z,1002.66
2023-05-21T04:05:23.962Z,1002.66
2023-05-21T04:05:45.036Z,1002.70
2023-05-21T04:06:06.101Z,1002.64
2023-05-21T04:06:27.155Z,1002.64
2023-05-21T04:06:48.224Z,1002.64
2023-05-21T04:07:09.266Z,1002.66
2023-05-21T04:07:30.338Z,1002.66
2023-05-21T04:07:51.386Z,1002.68
2023-05-21T04:08:12.443Z,1002.66
2023-05-21T04:08:33.549Z,1002.66
2023-05-21T04:08:54.631Z,1002.66
2023-05-21T04:09:15.699Z,1002.66
2023-05-21T04:09:36.934Z,1002.64
2023-05-21T04:09:57.990Z,1002.66
2023-05-21T04:10:19.058Z,1002.66
2023-05-21T04:10:40.131Z,1002.68
2023-05-21T04:11:01.179Z,1002.68
2023-05-21T04:11:22.245Z,1002.68
2023-05-21T04:11:43.292Z,1002.68
2023-05-21T04:12:04.352Z,1002.68
2023-05-21T04:12:25.403Z,1002.68
2023-05-21T04:12:46.472Z,1002.66
2023-05-21T04:13:07.566Z,1002.66
2023-05-21T04:13:28.616Z,1002.68
2023-05-21T04:13:49.716Z,1002.68
2023-05-21T04:14:10.989Z,1002.68
2023-05-21T04:14:32.018Z,1002.68
2023-05-21T04:14:53.099Z,1002.70
2023-05-21T04:15:14.144Z,1002.70
2023-05-21T04:15:35.634Z,1002.70